createdAt,value
2023-08-08T00:00:38.161Z,98846.59
2023-08-08T00:03:07.795Z,98849.13
2023-08-08T00:05:36.878Z,98842.06
2023-08-08T00:08:07.830Z,98844.63
2023-08-08T00:10:36.820Z,98844.59
2023-08-08T00:13:06.129Z,98838.38
2023-08-08T00:15:35.244Z,98833.16
2023-08-08T00:18:06.222Z,98834.91
2023-08-08T00:20:35.155Z,98837.31
2023-08-08T00:23:04.120Z,98834.66
2023-08-08T00:25:33.021Z,98831.22
2023-08-08T00:28:02.158Z,98828.50
2023-08-08T00:30:31.098Z,98824.06
2023-08-08T00:33:00.127Z,98826.72
2023-08-08T00:35:30.481Z,98817.84
2023-08-08T00:37:59.453Z,98818.78
2023-08-08T00:40:28.568Z,98817.84
2023-08-08T00:42:57.516Z,98818.69
2023-08-08T00:45:26.632Z,98809.81
2023-08-08T00:47:56.104Z,98799.03
2023-08-08T00:50:25.764Z,98807.81
2023-08-08T00:52:56.397Z,98804.16
2023-08-08T00:55:25.714Z,98805.84
2023-08-08T00:57:55.334Z,98804.09
2023-08-08T01:00:25.600Z,98814.63
2023-08-08T01:02:55.429Z,98804.03
2023-08-08T01:05:25.032Z,98807.44
2023-08-08T01:08:05.055Z,98800.16
2023-08-08T01:10:38.281Z,98796.47
2023-08-08T01:13:12.614Z,98778.63
2023-08-08T01:15:42.554Z,98787.38
2023-08-08T01:18:12.858Z,98777.66
2023-08-08T01:20:42.619Z,98775.00
2023-08-08T01:23:18.504Z,98772.44
2023-08-08T01:25:50.370Z,98763.63
2023-08-08T01:28:23.798Z,98764.75
2023-08-08T01:30:53.198Z,98757.94
2023-08-08T01:33:23.439Z,98752.81
2023-08-08T01:35:58.452Z,98755.59
2023-08-08T01:38:29.415Z,98768.09
2023-08-08T01:41:01.751Z,98758.78
2023-08-08T01:43:32.331Z,98750.28
2023-08-08T01:46:04.059Z,98757.50
2023-08-08T01:48:33.333Z,98757.84
2023-08-08T01:51:02.427Z,98751.97
2023-08-08T01:53:31.605Z,98762.22
2023-08-08T01:56:01.982Z,98767.75
2023-08-08T01:58:31.933Z,98758.38
2023-08-08T02:01:02.030Z,98755.13
2023-08-08T02:03:31.093Z,98770.53
2023-08-08T02:06:00.277Z,98742.81
2023-08-08T02:08:29.394Z,98758.34
2023-08-08T02:10:58.522Z,98755.22
2023-08-08T02:13:28.867Z,98753.97
2023-08-08T02:15:57.976Z,98752.50
2023-08-08T02:18:26.925Z,98756.91
2023-08-08T02:20:56.398Z,98753.69
2023-08-08T02:23:25.436Z,98746.44
2023-08-08T02:25:54.457Z,98752.28
2023-08-08T02:28:24.010Z,98749.31
2023-08-08T02:30:55.387Z,98754.31
2023-08-08T02:33:24.361Z,98762.16
2023-08-08T02:35:57.511Z,98747.91
2023-08-08T02:38:26.751Z,98750.63
2023-08-08T02:40:55.700Z,98756.09
2023-08-08T02:43:24.816Z,98750.00
2023-08-08T02:45:55.338Z,98742.25
2023-08-08T02:48:24.511Z,98743.38
2023-08-08T02:50:53.550Z,98737.97
2023-08-08T02:53:25.508Z,98751.09
2023-08-08T02:55:54.541Z,98741.06
2023-08-08T02:58:23.709Z,98755.16
2023-08-08T03:00:55.412Z,98744.19
2023-08-08T03:03:25.189Z,98753.81
2023-08-08T03:05:54.648Z,98751.94
2023-08-08T03:08:23.669Z,98742.81
2023-08-08T03:10:52.925Z,98752.16
2023-08-08T03:13:23.708Z,98754.06
2023-08-08T03:15:55.150Z,98749.53
2023-08-08T03:18:27.072Z,98743.44
2023-08-08T03:20:56.836Z,98744.44
2023-08-08T03:23:26.637Z,98745.41
2023-08-08T03:25:56.089Z,98746.69
2023-08-08T03:28:28.077Z,98749.06
2023-08-08T03:31:00.391Z,98748.13
2023-08-08T03:33:31.295Z,98741.16
2023-08-08T03:36:01.620Z,98739.66
2023-08-08T03:38:31.280Z,98740.34
2023-08-08T03:41:00.242Z,98747.44
2023-08-08T03:43:29.528Z,98738.72
2023-08-08T03:46:00.578Z,98747.44
2023-08-08T03:48:29.579Z,98750.63
2023-08-08T03:50:59.465Z,98754.19
2023-08-08T03:53:28.573Z,98755.31
2023-08-08T03:56:00.790Z,98753.59
2023-08-08T03:58:30.158Z,98755.31
2023-08-08T04:01:00.672Z,98757.53
2023-08-08T04:03:29.930Z,98754.72
2023-08-08T04:05:59.190Z,98758.22
2023-08-08T04:08:28.163Z,98775.75
2023-08-08T04:10:57.161Z,98769.38
2023-08-08T04:13:26.166Z,98766.69
2023-08-08T04:15:55.210Z,98767.53
2023-08-08T04:18:25.615Z,98766.31
2023-08-08T04:20:54.720Z,98768.16
2023-08-08T04:23:26.649Z,98767.19
2023-08-08T04:25:55.915Z,98771.28
2023-08-08T04:28:24.995Z,98772.25
2023-08-08T04:30:54.066Z,98782.13
2023-08-08T04:33:23.120Z,98771.72
2023-08-08T04:35:53.433Z,98769.16
2023-08-08T04:38:22.382Z,98772.06
2023-08-08T04:40:51.314Z,98765.25
2023-08-08T04:43:20.247Z,98771.81
2023-08-08T04:45:49.229Z,98772.81
2023-08-08T04:48:18.336Z,98776.63
2023-08-08T04:50:48.869Z,98778.47
2023-08-08T04:53:19.197Z,98780.41
2023-08-08T04:55:48.751Z,98780.41
2023-08-08T04:58:17.777Z,98774.19
2023-08-08T05:00:47.725Z,98781.97
2023-08-08T05:03:16.791Z,98791.44
2023-08-08T05:05:46.822Z,98777.78
2023-08-08T05:08:16.529Z,98775.75
2023-08-08T05:10:48.153Z,98788.75
2023-08-08T05:13:23.215Z,98790.00
2023-08-08T05:15:52.351Z,98798.47
2023-08-08T05:18:21.652Z,98799.34
2023-08-08T05:20:51.013Z,98812.34
2023-08-08T05:23:20.169Z,98809.59
2023-08-08T05:25:50.720Z,98804.50
2023-08-08T05:28:19.863Z,98792.63
2023-08-08T05:30:49.349Z,98787.13
2023-08-08T05:33:18.583Z,98781.72
2023-08-08T05:35:47.650Z,98780.22
2023-08-08T05:38:16.851Z,98784.06
2023-08-08T05:40:46.142Z,98788.81
2023-08-08T05:43:19.558Z,98775.72
2023-08-08T05:45:50.150Z,98781.44
2023-08-08T05:48:19.549Z,98788.94
2023-08-08T05:50:48.884Z,98779.84
2023-08-08T05:53:18.248Z,98777.97
2023-08-08T05:55:47.528Z,98793.75
2023-08-08T05:58:18.457Z,98781.06
2023-08-08T06:00:47.692Z,98785.25
2023-08-08T06:03:17.172Z,98793.09
2023-08-08T06:05:46.179Z,98788.53
2023-08-08T06:08:17.333Z,98789.00
2023-08-08T06:10:46.478Z,98789.66
2023-08-08T06:13:15.945Z,98794.13
2023-08-08T06:15:46.548Z,98792.44
2023-08-08T06:18:16.607Z,98791.53
2023-08-08T06:20:45.919Z,98788.03
2023-08-08T06:23:16.435Z,98782.00
2023-08-08T06:25:45.623Z,98777.81
2023-08-08T06:28:14.658Z,98778.09
2023-08-08T06:30:43.809Z,98782.59
2023-08-08T06:33:14.480Z,98787.09
2023-08-08T06:35:44.698Z,98790.78
2023-08-08T06:38:13.870Z,98790.19
2023-08-08T06:40:43.547Z,98794.84
2023-08-08T06:43:13.075Z,98792.34
2023-08-08T06:45:42.394Z,98795.03
2023-08-08T06:48:11.812Z,98797.78
2023-08-08T06:50:42.742Z,98788.03
2023-08-08T06:53:12.132Z,98789.84
2023-08-08T06:55:41.570Z,98794.31
2023-08-08T06:58:11.154Z,98798.84
2023-08-08T07:00:41.183Z,98801.53
2023-08-08T07:03:10.890Z,98808.59
2023-08-08T07:05:42.038Z,98803.25
2023-08-08T07:08:12.020Z,98793.50
2023-08-08T07:10:42.983Z,98798.84
2023-08-08T07:13:12.747Z,98787.25
2023-08-08T07:15:42.518Z,98791.75
2023-08-08T07:18:12.088Z,98794.50
2023-08-08T07:20:43.061Z,98806.13
2023-08-08T07:23:12.800Z,98802.56
2023-08-08T07:25:42.382Z,98802.56
2023-08-08T07:28:12.260Z,98794.44
2023-08-08T07:30:42.070Z,98790.84
2023-08-08T07:33:11.641Z,98801.56
2023-08-08T07:35:43.316Z,98809.66
2023-08-08T07:38:13.028Z,98817.69
2023-08-08T07:40:42.856Z,98817.63
2023-08-08T07:43:12.487Z,98831.91
2023-08-08T07:45:42.470Z,98833.53
2023-08-08T07:48:12.111Z,98828.91
2023-08-08T07:50:43.506Z,98826.31
2023-08-08T07:53:13.727Z,98825.41
2023-08-08T07:55:43.665Z,98822.03
2023-08-08T07:58:13.753Z,98814.03
2023-08-08T08:00:55.684Z,98823.81
2023-08-08T08:03:31.178Z,98812.28
2023-08-08T08:06:03.574Z,98807.88
2023-08-08T08:08:34.040Z,98813.22
2023-08-08T08:11:04.991Z,98813.22
2023-08-08T08:13:34.528Z,98811.34
2023-08-08T08:16:04.510Z,98811.44
2023-08-08T08:18:35.083Z,98807.94
2023-08-08T08:21:06.565Z,98808.78
2023-08-08T08:23:38.721Z,98810.59
2023-08-08T08:26:08.822Z,98812.41
2023-08-08T08:28:38.544Z,98820.44
2023-08-08T08:31:11.803Z,98815.03
2023-08-08T08:33:41.709Z,98812.41
2023-08-08T08:36:17.037Z,98811.47
2023-08-08T08:38:48.680Z,98819.50
2023-08-08T08:41:23.341Z,98817.72
2023-08-08T08:43:53.377Z,98824.00
2023-08-08T08:46:26.432Z,98814.16
2023-08-08T08:48:58.693Z,98822.22
2023-08-08T08:51:32.951Z,98817.75
2023-08-08T08:54:02.625Z,98821.31
2023-08-08T08:56:34.250Z,98820.47
2023-08-08T08:59:04.827Z,98820.44
2023-08-08T09:01:35.534Z,98831.16
2023-08-08T09:04:11.229Z,98833.78
2023-08-08T09:06:43.740Z,98827.50
2023-08-08T09:09:16.856Z,98825.72
2023-08-08T09:11:51.318Z,98829.19
2023-08-08T09:14:25.490Z,98830.97
2023-08-08T09:16:58.086Z,98842.22
2023-08-08T09:19:30.797Z,98839.88
2023-08-08T09:22:04.535Z,98847.38
2023-08-08T09:24:35.402Z,98842.63
2023-08-08T09:27:07.391Z,98845.91
2023-08-08T09:29:41.570Z,98852.59
2023-08-08T09:32:16.447Z,98847.53
2023-08-08T09:34:49.643Z,98839.63
2023-08-08T09:37:21.679Z,98836.94
2023-08-08T09:39:59.954Z,98846.28
2023-08-08T09:42:30.818Z,98848.31
2023-08-08T09:45:06.309Z,98850.28
2023-08-08T09:47:37.569Z,98849.47
2023-08-08T09:50:09.523Z,98857.16
2023-08-08T09:52:41.530Z,98858.47
2023-08-08T09:55:13.637Z,98853.06
2023-08-08T09:57:45.583Z,98854.97
2023-08-08T10:00:18.402Z,98856.81
2023-08-08T10:02:48.632Z,98857.47
2023-08-08T10:05:19.973Z,98861.00
2023-08-08T10:07:52.533Z,98868.25
2023-08-08T10:10:28.844Z,98864.84
2023-08-08T10:12:58.315Z,98868.63
2023-08-08T10:15:29.788Z,98863.34
2023-08-08T10:18:00.191Z,98859.78
2023-08-08T10:20:29.808Z,98870.50
2023-08-08T10:23:00.957Z,98856.19
2023-08-08T10:25:32.921Z,98857.94
2023-08-08T10:28:23.924Z,98858.81
2023-08-08T10:30:56.589Z,98845.38
2023-08-08T10:33:27.018Z,98854.28
2023-08-08T10:36:04.669Z,98863.25
2023-08-08T10:38:45.947Z,98866.88
2023-08-08T10:41:17.028Z,98866.75
2023-08-08T10:43:53.784Z,98865.94
2023-08-08T10:46:27.448Z,98868.66
2023-08-08T10:49:00.122Z,98873.88
2023-08-08T10:51:37.732Z,98869.97
2023-08-08T10:54:14.328Z,98871.31
2023-08-08T10:56:49.774Z,98861.50
2023-08-08T10:59:22.075Z,98868.03
2023-08-08T11:01:54.724Z,98875.53
2023-08-08T11:04:26.998Z,98870.34
2023-08-08T11:06:56.690Z,98866.84
2023-08-08T11:09:27.570Z,98861.47
2023-08-08T11:11:56.824Z,98870.44
2023-08-08T11:14:26.075Z,98874.03
2023-08-08T11:16:55.339Z,98877.59
2023-08-08T11:19:25.579Z,98874.91
2023-08-08T11:21:54.913Z,98881.19
2023-08-08T11:24:24.041Z,98883.72
2023-08-08T11:27:01.481Z,98887.28
2023-08-08T11:29:31.820Z,98888.25
2023-08-08T11:32:03.388Z,98888.34
2023-08-08T11:34:34.379Z,98899.94
2023-08-08T11:37:03.906Z,98891.91
2023-08-08T11:39:33.164Z,98897.28
2023-08-08T11:42:04.375Z,98891.94
2023-08-08T11:44:33.749Z,98886.53
2023-08-08T11:47:04.372Z,98897.28
2023-08-08T11:49:42.336Z,98900.84
2023-08-08T11:52:11.787Z,98899.94
2023-08-08T11:54:40.889Z,98891.91
2023-08-08T11:57:11.650Z,98895.50
2023-08-08T11:59:40.859Z,98894.56
2023-08-08T12:02:11.670Z,98895.44
2023-08-08T12:04:40.725Z,98893.72
2023-08-08T12:07:09.727Z,98902.56
2023-08-08T12:09:39.789Z,98900.78
2023-08-08T12:12:11.239Z,98900.84
2023-08-08T12:14:51.162Z,98896.41
2023-08-08T12:17:26.299Z,98899.06
2023-08-08T12:19:55.422Z,98901.72
2023-08-08T12:22:24.698Z,98899.06
2023-08-08T12:24:54.213Z,98908.88
2023-08-08T12:27:24.727Z,98906.19
2023-08-08T12:29:54.374Z,98905.19
2023-08-08T12:32:24.867Z,98912.19
2023-08-08T12:34:54.055Z,98910.28
2023-08-08T12:37:24.410Z,98907.56
2023-08-08T12:39:53.864Z,98904.94
2023-08-08T12:42:24.308Z,98907.59
2023-08-08T12:44:53.556Z,98902.31
2023-08-08T12:47:22.891Z,98906.75
2023-08-08T12:49:51.988Z,98901.34
2023-08-08T12:52:21.153Z,98907.69
2023-08-08T12:54:50.205Z,98905.97
2023-08-08T12:57:19.254Z,98902.47
2023-08-08T12:59:49.680Z,98902.31
2023-08-08T13:02:18.893Z,98899.53
2023-08-08T13:04:47.939Z,98906.66
2023-08-08T13:07:17.085Z,98906.72
2023-08-08T13:09:46.096Z,98905.00
2023-08-08T13:12:15.218Z,98902.38
2023-08-08T13:14:44.286Z,98901.50
2023-08-08T13:17:14.769Z,98896.94
2023-08-08T13:19:44.059Z,98897.81
2023-08-08T13:22:13.751Z,98896.03
2023-08-08T13:24:42.988Z,98895.06
2023-08-08T13:27:12.385Z,98896.94
2023-08-08T13:29:41.887Z,98894.28
2023-08-08T13:32:11.046Z,98895.16
2023-08-08T13:34:41.456Z,98895.25
2023-08-08T13:37:10.431Z,98905.16
2023-08-08T13:39:39.505Z,98908.75
2023-08-08T13:45:00.229Z,98899.81
2023-08-08T13:47:29.238Z,98893.47
2023-08-08T13:49:59.642Z,98891.63
2023-08-08T13:52:29.893Z,98895.25
2023-08-08T13:54:58.915Z,98893.53
2023-08-08T13:57:28.193Z,98892.66
2023-08-08T13:59:57.182Z,98891.78
2023-08-08T14:02:26.420Z,98893.56
2023-08-08T14:04:55.501Z,98896.28
2023-08-08T14:07:26.037Z,98893.66
2023-08-08T14:09:55.180Z,98891.94
2023-08-08T14:12:24.358Z,98895.50
2023-08-08T14:14:53.564Z,98891.91
2023-08-08T14:17:22.636Z,98890.13
2023-08-08T14:19:51.634Z,98893.72
2023-08-08T14:22:20.687Z,98892.81
2023-08-08T14:24:51.202Z,98893.69
2023-08-08T14:27:20.312Z,98891.91
2023-08-08T14:29:49.246Z,98899.97
2023-08-08T14:32:18.398Z,98901.72
2023-08-08T14:34:47.524Z,98895.47
2023-08-08T14:37:16.859Z,98901.75
2023-08-08T14:39:45.878Z,98890.13
2023-08-08T14:42:16.740Z,98899.94
2023-08-08T14:44:45.764Z,98891.91
2023-08-08T14:47:14.866Z,98900.81
2023-08-08T14:49:43.892Z,98905.25
2023-08-08T14:52:13.760Z,98908.78
2023-08-08T14:54:42.822Z,98898.94
2023-08-08T14:57:12.058Z,98899.84
2023-08-08T14:59:42.585Z,98901.63
2023-08-08T15:02:11.673Z,98898.03
2023-08-08T15:04:40.731Z,98898.94
2023-08-08T15:07:09.811Z,98904.25
2023-08-08T15:09:39.809Z,98912.31
2023-08-08T15:12:09.369Z,98906.09
2023-08-08T15:14:38.401Z,98911.44
2023-08-08T15:17:08.832Z,98909.63
2023-08-08T15:19:39.372Z,98901.59
2023-08-08T15:22:08.830Z,98904.22
2023-08-08T15:24:37.907Z,98902.44
2023-08-08T15:27:07.725Z,98904.25
2023-08-08T15:29:38.958Z,98904.25
2023-08-08T15:32:09.708Z,98900.72
2023-08-08T15:34:38.772Z,98908.72
2023-08-08T15:37:07.865Z,98907.84
2023-08-08T15:39:37.010Z,98907.81
2023-08-08T15:42:06.095Z,98916.66
2023-08-08T15:44:35.334Z,98908.59
2023-08-08T15:47:04.592Z,98914.78
2023-08-08T15:49:35.492Z,98906.66
2023-08-08T15:52:04.698Z,98914.63
2023-08-08T15:54:33.730Z,98913.69
2023-08-08T15:57:03.685Z,98915.31
2023-08-08T15:59:33.248Z,98913.44
2023-08-08T16:02:02.301Z,98923.13
2023-08-08T16:04:32.454Z,98922.19
2023-08-08T16:07:03.232Z,98925.75
2023-08-08T16:09:32.653Z,98923.94
2023-08-08T16:12:01.697Z,98921.25
2023-08-08T16:14:30.758Z,98928.31
2023-08-08T16:17:01.127Z,98923.75
2023-08-08T16:19:30.495Z,98929.75
2023-08-08T16:21:59.620Z,98932.22
2023-08-08T16:24:30.010Z,98924.00
2023-08-08T16:26:59.077Z,98927.41
2023-08-08T16:29:28.296Z,98932.63
2023-08-08T16:31:57.339Z,98930.63
2023-08-08T16:34:26.368Z,98935.81
2023-08-08T16:36:55.441Z,98934.75
2023-08-08T16:39:24.626Z,98936.38
2023-08-08T16:41:59.775Z,98935.38
2023-08-08T16:44:29.074Z,98942.31
2023-08-08T16:46:58.187Z,98930.47
2023-08-08T16:49:27.933Z,98937.47
2023-08-08T16:52:00.745Z,98940.19
2023-08-08T16:54:30.336Z,98936.81
2023-08-08T16:57:00.902Z,98951.19
2023-08-08T16:59:30.554Z,98946.75
2023-08-08T17:02:07.036Z,98950.19
2023-08-08T17:04:36.072Z,98958.97
2023-08-08T17:07:05.169Z,98958.00
2023-08-08T17:09:34.743Z,98960.53
2023-08-08T17:12:05.912Z,98958.56
2023-08-08T17:14:35.623Z,98960.09
2023-08-08T17:17:05.148Z,98966.00
2023-08-08T17:19:34.304Z,98975.59
2023-08-08T17:22:03.892Z,98969.34
2023-08-08T17:24:36.597Z,98969.34
2023-08-08T17:27:09.572Z,98979.06
2023-08-08T17:29:38.648Z,98985.19
2023-08-08T17:32:06.912Z,98985.19
2023-08-08T17:34:36.173Z,98997.69
2023-08-08T17:37:05.410Z,99004.88
2023-08-08T17:39:34.574Z,99005.66
2023-08-08T17:42:04.478Z,99011.78
2023-08-08T17:44:51.772Z,99014.28
2023-08-08T17:47:41.431Z,99026.59
2023-08-08T17:50:11.002Z,99024.81
2023-08-08T17:52:40.075Z,99024.00
2023-08-08T17:55:10.837Z,99023.00
2023-08-08T17:57:39.855Z,99021.25
2023-08-08T18:00:11.743Z,99014.63
2023-08-08T18:02:41.235Z,99025.19
2023-08-08T18:05:10.741Z,99042.75
2023-08-08T18:07:38.805Z,99035.66
2023-08-08T18:10:09.358Z,99040.78
2023-08-08T18:12:38.479Z,99035.44
2023-08-08T18:15:08.642Z,99028.16
2023-08-08T18:17:39.345Z,99037.81
2023-08-08T18:20:10.796Z,99037.81
2023-08-08T18:22:39.933Z,99042.16
2023-08-08T18:25:10.251Z,99025.13
2023-08-08T18:27:39.437Z,99037.38
2023-08-08T18:30:09.735Z,99039.88
2023-08-08T18:32:40.384Z,99038.78
2023-08-08T18:35:10.135Z,99043.25
2023-08-08T18:37:40.439Z,99036.84
2023-08-08T18:40:12.770Z,99034.03
2023-08-08T18:42:42.317Z,99043.75
2023-08-08T18:45:12.625Z,99045.41
2023-08-08T18:47:43.376Z,99044.59
2023-08-08T18:50:13.094Z,99042.66
2023-08-08T18:52:42.190Z,99044.31
2023-08-08T18:55:11.264Z,99046.09
2023-08-08T18:57:40.373Z,99054.78
2023-08-08T19:00:10.282Z,99057.22
2023-08-08T19:02:39.361Z,99052.81
2023-08-08T19:05:10.594Z,99052.81
2023-08-08T19:07:39.762Z,99054.50
2023-08-08T19:10:09.730Z,99055.25
2023-08-08T19:12:39.055Z,99055.97
2023-08-08T19:15:09.496Z,99058.69
2023-08-08T19:17:53.666Z,99057.56
2023-08-08T19:20:26.494Z,99052.25
2023-08-08T19:22:57.310Z,99069.81
2023-08-08T19:25:26.471Z,99052.16
2023-08-08T19:27:55.613Z,99063.53
2023-08-08T19:30:25.241Z,99061.75
2023-08-08T19:32:54.386Z,99066.22
2023-08-08T19:35:23.494Z,99081.13
2023-08-08T19:37:53.875Z,99070.38
2023-08-08T19:40:22.977Z,99070.41
2023-08-08T19:42:54.865Z,99067.75
2023-08-08T19:45:24.131Z,99062.44
2023-08-08T19:47:53.297Z,99070.28
2023-08-08T19:50:22.456Z,99064.00
2023-08-08T19:52:51.647Z,99078.03
2023-08-08T19:55:22.231Z,99070.94
2023-08-08T19:57:51.300Z,99073.44
2023-08-08T20:00:21.410Z,99074.06
2023-08-08T20:02:53.627Z,99079.88
2023-08-08T20:05:23.055Z,99060.34
2023-08-08T20:07:53.452Z,99054.19
2023-08-08T20:10:26.461Z,99064.00
2023-08-08T20:12:55.840Z,99075.91
2023-08-08T20:15:24.852Z,99080.59
2023-08-08T20:17:54.392Z,99076.94
2023-08-08T20:20:24.034Z,99069.25
2023-08-08T20:22:53.073Z,99057.88
2023-08-08T20:25:22.136Z,99056.66
2023-08-08T20:27:51.576Z,99055.59
2023-08-08T20:30:20.630Z,99055.97
2023-08-08T20:32:49.771Z,99058.78
2023-08-08T20:35:18.930Z,99055.53
2023-08-08T20:37:47.973Z,99064.50
2023-08-08T20:40:17.092Z,99067.94
2023-08-08T20:42:46.139Z,99067.91
2023-08-08T20:45:16.588Z,99070.53
2023-08-08T20:47:45.595Z,99062.66
2023-08-08T20:50:14.631Z,99056.56
2023-08-08T20:52:44.828Z,99038.97
2023-08-08T20:55:14.100Z,99047.88
2023-08-08T20:57:43.075Z,99048.78
2023-08-08T21:00:13.057Z,99053.28
2023-08-08T21:02:43.755Z,99050.75
2023-08-08T21:05:12.793Z,99049.91
2023-08-08T21:07:41.831Z,99057.84
2023-08-08T21:10:11.764Z,99057.59
2023-08-08T21:12:40.814Z,99054.44
2023-08-08T21:15:10.522Z,99056.97
2023-08-08T21:17:44.038Z,99050.88
2023-08-08T21:20:14.881Z,99048.31
2023-08-08T21:22:44.077Z,99046.66
2023-08-08T21:25:13.680Z,99056.47
2023-08-08T21:27:42.628Z,99063.47
2023-08-08T21:30:12.640Z,99055.56
2023-08-08T21:32:41.682Z,99064.56
2023-08-08T21:35:10.964Z,99064.66
2023-08-08T21:37:41.488Z,99058.47
2023-08-08T21:40:11.364Z,99055.78
2023-08-08T21:42:40.619Z,99063.66
2023-08-08T21:45:10.559Z,99062.81
2023-08-08T21:47:40.447Z,99075.13
2023-08-08T21:50:10.272Z,99084.81
2023-08-08T21:52:40.610Z,99076.16
2023-08-08T21:55:10.267Z,99063.00
2023-08-08T21:57:40.168Z,99061.25
2023-08-08T22:00:14.431Z,99068.84
2023-08-08T22:02:45.092Z,99067.63
2023-08-08T22:05:14.157Z,99061.81
2023-08-08T22:07:44.490Z,99070.56
2023-08-08T22:10:13.837Z,99081.56
2023-08-08T22:12:42.820Z,99078.09
2023-08-08T22:15:12.853Z,99080.25
2023-08-08T22:17:50.304Z,99076.53
2023-08-08T22:20:26.287Z,99072.78
2023-08-08T22:23:02.917Z,99076.13
2023-08-08T22:25:38.325Z,99083.84
2023-08-08T22:28:07.953Z,99080.19
2023-08-08T22:30:37.190Z,99081.97
2023-08-08T22:33:06.506Z,99079.34
2023-08-08T22:35:35.556Z,99076.78
2023-08-08T22:38:07.216Z,99075.97
2023-08-08T22:40:36.135Z,99069.25
2023-08-08T22:43:05.409Z,99065.13
2023-08-08T22:45:34.313Z,99076.63
2023-08-08T22:48:04.013Z,99074.97
2023-08-08T22:50:33.195Z,99078.56
2023-08-08T22:53:02.361Z,99068.13
2023-08-08T22:55:34.013Z,99068.00
2023-08-08T22:58:02.932Z,99071.25
2023-08-08T23:00:32.328Z,99069.44
2023-08-08T23:03:01.397Z,99067.34
2023-08-08T23:05:30.392Z,99070.78
2023-08-08T23:07:59.380Z,99071.16
2023-08-08T23:10:28.321Z,99077.16
2023-08-08T23:12:58.663Z,99077.06
2023-08-08T23:15:27.921Z,99081.31
2023-08-08T23:17:56.845Z,99074.56
2023-08-08T23:20:25.993Z,99072.69
2023-08-08T23:22:54.852Z,99068.41
2023-08-08T23:25:26.260Z,99064.00
2023-08-08T23:27:55.330Z,99064.91
2023-08-08T23:30:26.055Z,99060.34
2023-08-08T23:32:55.287Z,99062.84
2023-08-08T23:35:24.793Z,99065.63
2023-08-08T23:37:53.842Z,99057.72
2023-08-08T23:40:23.781Z,99062.28
2023-08-08T23:42:52.743Z,99060.66
2023-08-08T23:45:21.769Z,99055.66
2023-08-08T23:47:52.305Z,99055.81
2023-08-08T23:50:21.513Z,99050.44
2023-08-08T23:52:50.570Z,99047.81
2023-08-08T23:55:19.552Z,99053.22
2023-08-08T23:57:48.767Z,99053.09
